Time;durP1;ratioP1;P1;durP2;ratioP2;P2;SDS_P1;SDS_P2;PMS_P1;PMS_P2;Temp;Humidity;BMP_temperature;BMP_pressure;BME280_temperature;BME280_humidity;BME280_pressure;Samples;Min_cycle;Max_cycle;Signal;HPM_P1;HPM_P2
2023/12/22 00:02:56;;;;;;;0.33;0.20;;;;;;;4.69;100.00;95550.91;6123285;28;20241;-44
2023/12/22 00:05:58;;;;;;;1.50;0.20;;;;;;;5.10;98.30;95614.38;6129710;28;20252;-44
2023/12/22 00:09:00;;;;;;;1.60;0.30;;;;;;;5.05;100.00;95601.97;6130734;28;20203;-44
2023/12/22 00:12:03;;;;;;;1.47;0.30;;;;;;;4.98;100.00;95629.66;6131372;28;20350;-44
2023/12/22 00:15:06;;;;;;;0.40;0.20;;;;;;;5.34;91.23;95628.75;6130725;28;20199;-43
2023/12/22 00:18:08;;;;;;;0.20;0.20;;;;;;;5.39;88.92;95626.13;6126993;28;20258;-46
2023/12/22 00:21:11;;;;;;;1.80;0.30;;;;;;;5.44;85.22;95649.09;6137795;28;20195;-44
2023/12/22 00:24:13;;;;;;;1.30;0.43;;;;;;;5.35;87.63;95664.66;6127399;29;20218;-44
2023/12/22 00:27:14;;;;;;;0.83;0.27;;;;;;;5.28;88.10;95656.19;6132492;28;20900;-43
2023/12/22 00:30:16;;;;;;;1.17;0.70;;;;;;;5.15;93.04;95662.72;6133849;28;20597;-43
2023/12/22 00:33:18;;;;;;;0.30;0.20;;;;;;;4.91;100.00;95640.41;6135283;28;20207;-45
2023/12/22 00:36:24;;;;;;;0.60;0.33;;;;;;;4.53;100.00;95644.97;6130792;29;20203;-44
2023/12/22 00:39:26;;;;;;;1.43;0.50;;;;;;;4.79;94.96;95629.28;6136471;28;20195;-43
2023/12/22 00:42:28;;;;;;;2.27;0.57;;;;;;;4.56;100.00;95598.81;6137864;28;20208;-42
2023/12/22 00:45:31;;;;;;;1.07;0.40;;;;;;;4.71;94.01;95606.81;6133532;28;20211;-43
2023/12/22 00:48:32;;;;;;;2.50;0.40;;;;;;;4.58;94.20;95602.81;6132783;28;20207;-44
2023/12/22 00:51:34;;;;;;;1.60;0.30;;;;;;;4.62;97.75;95618.88;6137642;28;20208;-44
2023/12/22 00:54:37;;;;;;;1.10;0.40;;;;;;;4.79;91.61;95630.06;6135348;28;20191;-44
2023/12/22 00:57:39;;;;;;;0.70;0.20;;;;;;;4.77;93.36;95634.00;6135330;28;20773;-45
2023/12/22 01:00:41;;;;;;;1.93;0.30;;;;;;;4.83;91.88;95648.84;6133541;29;20210;-43
2023/12/22 01:03:42;;;;;;;2.50;0.50;;;;;;;4.65;93.85;95663.22;6134302;28;20269;-45
2023/12/22 01:06:44;;;;;;;0.40;0.30;;;;;;;4.92;90.36;95674.44;6137154;28;20198;-44
2023/12/22 01:09:46;;;;;;;0.33;0.30;;;;;;;4.89;87.52;95647.81;6134580;28;20206;-43
2023/12/22 01:12:48;;;;;;;1.37;0.57;;;;;;;4.79;90.52;95663.56;6135979;28;20326;-44
2023/12/22 01:15:51;;;;;;;1.30;0.40;;;;;;;4.95;86.35;95632.78;6123885;29;20207;-43
2023/12/22 01:18:53;;;;;;;0.67;0.30;;;;;;;5.07;83.53;95649.19;6138218;28;20686;-44
2023/12/22 01:21:55;;;;;;;1.00;0.30;;;;;;;4.97;87.42;95623.56;6135541;28;20211;-44
2023/12/22 01:24:57;;;;;;;1.17;0.20;;;;;;;4.91;84.90;95625.38;6133852;28;20218;-47
2023/12/22 01:27:59;;;;;;;0.20;0.10;;;;;;;4.98;82.39;95659.47;6138898;28;20284;-45
2023/12/22 01:31:04;;;;;;;1.17;0.30;;;;;;;4.87;89.66;95647.25;6131040;28;20688;-46
2023/12/22 01:34:06;;;;;;;0.53;0.30;;;;;;;4.95;87.83;95659.97;6118904;29;20374;-46
2023/12/22 01:37:09;;;;;;;1.40;0.30;;;;;;;4.57;88.44;95651.28;6130266;28;20689;-44
2023/12/22 01:40:11;;;;;;;0.67;0.30;;;;;;;4.93;83.43;95648.88;6130730;29;20195;-45
2023/12/22 01:43:14;;;;;;;2.83;0.40;;;;;;;4.91;82.47;95638.56;6133508;28;20210;-44
2023/12/22 01:46:17;;;;;;;0.20;0.20;;;;;;;4.99;82.56;95629.38;6132786;28;20917;-45
2023/12/22 01:49:21;;;;;;;0.23;0.23;;;;;;;4.85;87.51;95642.25;6132208;28;20521;-44
2023/12/22 01:52:25;;;;;;;0.33;0.23;;;;;;;4.78;86.69;95675.97;6125889;28;20198;-47
2023/12/22 01:55:27;;;;;;;1.43;0.30;;;;;;;5.14;83.69;95676.16;6135528;29;20221;-44
2023/12/22 01:58:32;;;;;;;0.33;0.20;;;;;;;5.03;88.77;95653.44;6127090;28;20623;-45
2023/12/22 02:01:44;;;;;;;0.50;0.10;;;;;;;4.71;90.78;95648.22;6129669;28;20196;-44
2023/12/22 02:04:47;;;;;;;1.57;0.20;;;;;;;4.62;91.22;95650.53;6126540;28;20229;-45
2023/12/22 02:07:49;;;;;;;0.67;0.23;;;;;;;4.61;93.63;95672.69;6124766;28;20202;-44
2023/12/22 02:10:51;;;;;;;0.50;0.37;;;;;;;4.56;92.75;95688.47;6124646;28;20227;-44
2023/12/22 02:13:53;;;;;;;0.60;0.30;;;;;;;4.57;91.69;95690.84;6125191;28;20740;-45
2023/12/22 02:17:11;;;;;;;2.53;0.40;;;;;;;4.78;89.24;95702.34;6128007;28;20695;-46
2023/12/22 02:20:13;;;;;;;0.63;0.40;;;;;;;4.91;86.00;95693.97;6124873;28;20200;-44
2023/12/22 02:23:14;;;;;;;1.37;0.30;;;;;;;4.91;84.11;95690.53;6126687;28;20900;-45
2023/12/22 02:26:36;;;;;;;1.00;0.50;;;;;;;5.23;77.15;95701.03;6124035;28;20219;-45
2023/12/22 02:29:43;;;;;;;1.20;0.50;;;;;;;5.20;77.69;95687.53;6127875;28;20206;-44
2023/12/22 02:32:48;;;;;;;1.50;0.53;;;;;;;5.04;78.32;95655.00;6124908;28;20258;-43
2023/12/22 02:35:53;;;;;;;1.80;0.40;;;;;;;4.89;80.52;95672.34;6135733;28;20215;-45
2023/12/22 02:38:58;;;;;;;1.63;0.50;;;;;;;4.88;82.77;95686.59;6133384;28;20197;-45
2023/12/22 02:42:00;;;;;;;1.90;0.37;;;;;;;4.79;80.24;95709.22;6133753;28;20241;-44
2023/12/22 02:45:03;;;;;;;2.33;0.70;;;;;;;4.76;80.40;95693.09;6133270;28;20253;-45
2023/12/22 02:48:05;;;;;;;1.43;0.40;;;;;;;4.69;79.51;95732.09;6132229;28;20284;-45
2023/12/22 02:51:07;;;;;;;1.93;0.60;;;;;;;4.96;78.89;95709.03;6134089;28;20283;-44
2023/12/22 02:54:09;;;;;;;0.60;0.33;;;;;;;4.85;84.48;95725.88;6137427;28;20699;-44
2023/12/22 02:57:11;;;;;;;2.17;0.60;;;;;;;4.59;83.85;95717.78;6134774;28;20906;-44
2023/12/22 03:00:13;;;;;;;2.53;0.50;;;;;;;4.56;87.33;95730.66;6135088;28;20199;-47
2023/12/22 03:03:15;;;;;;;3.03;0.50;;;;;;;4.32;87.21;95707.25;6133158;28;20210;-45
2023/12/22 03:06:17;;;;;;;3.03;0.77;;;;;;;4.35;86.92;95698.06;6138330;28;20787;-44
2023/12/22 03:09:20;;;;;;;2.73;0.63;;;;;;;4.27;91.60;95675.56;6135724;28;20824;-46
2023/12/22 03:12:22;;;;;;;0.63;0.50;;;;;;;4.05;95.04;95680.94;6131970;28;20227;-45
2023/12/22 03:15:24;;;;;;;0.87;0.40;;;;;;;3.99;92.54;95720.63;6129049;28;20186;-45
2023/12/22 03:18:25;;;;;;;2.10;0.40;;;;;;;3.88;95.06;95719.72;6127263;28;20277;-43
2023/12/22 03:21:28;;;;;;;2.07;0.60;;;;;;;3.82;92.44;95742.59;6128518;29;20203;-44
2023/12/22 03:24:32;;;;;;;0.73;0.43;;;;;;;3.78;93.23;95745.97;6132460;28;20714;-45
2023/12/22 03:27:34;;;;;;;2.60;0.70;;;;;;;4.05;89.69;95725.72;6135906;28;20231;-45
2023/12/22 03:30:37;;;;;;;3.00;0.87;;;;;;;3.83;91.99;95702.03;6130597;28;20203;-46
2023/12/22 03:33:40;;;;;;;2.13;0.80;;;;;;;3.78;92.56;95693.28;6130773;29;20234;-45
2023/12/22 03:36:42;;;;;;;1.03;0.60;;;;;;;3.62;93.84;95729.97;6135976;28;20198;-44
2023/12/22 03:39:43;;;;;;;1.07;0.53;;;;;;;3.59;99.49;95733.09;6134832;28;20234;-45
2023/12/22 03:42:45;;;;;;;1.37;0.60;;;;;;;3.51;100.00;95751.97;6125105;28;20199;-45
2023/12/22 03:45:47;;;;;;;1.97;1.00;;;;;;;3.45;100.00;95746.88;6122675;29;20221;-44
2023/12/22 03:48:52;;;;;;;1.70;0.57;;;;;;;3.46;100.00;95733.47;6126089;28;20202;-44
2023/12/22 03:51:54;;;;;;;2.30;0.90;;;;;;;3.16;100.00;95736.50;6126063;28;20278;-44
2023/12/22 03:54:56;;;;;;;1.00;0.60;;;;;;;3.04;100.00;95752.38;6124963;28;20235;-46
2023/12/22 03:57:58;;;;;;;1.67;0.70;;;;;;;3.01;100.00;95747.63;6129076;28;20206;-46
2023/12/22 04:00:59;;;;;;;1.80;0.50;;;;;;;2.93;100.00;95723.56;6128376;28;20277;-45
2023/12/22 04:04:01;;;;;;;0.97;0.50;;;;;;;2.86;100.00;95723.72;6131548;28;20189;-44
2023/12/22 04:07:03;;;;;;;4.17;0.70;;;;;;;2.72;100.00;95706.69;6133488;28;20208;-45
2023/12/22 04:10:06;;;;;;;1.73;0.60;;;;;;;2.54;100.00;95720.88;6137746;29;20195;-44
2023/12/22 04:13:08;;;;;;;1.67;0.57;;;;;;;2.47;100.00;95739.44;6131282;28;20211;-43
2023/12/22 04:16:10;;;;;;;3.13;0.60;;;;;;;2.13;100.00;95701.81;6130804;28;20651;-45
2023/12/22 04:19:11;;;;;;;1.93;0.60;;;;;;;2.70;100.00;95738.47;6133930;28;20289;-44
2023/12/22 04:22:14;;;;;;;1.17;0.93;;;;;;;2.74;100.00;95757.19;6124441;29;20229;-44
2023/12/22 04:25:16;;;;;;;1.00;0.70;;;;;;;2.81;100.00;95748.13;6136303;28;20209;-44
2023/12/22 04:28:18;;;;;;;2.70;0.60;;;;;;;3.04;100.00;95755.00;6130184;28;20199;-44
2023/12/22 04:31:20;;;;;;;4.43;0.60;;;;;;;3.26;100.00;95752.44;6134117;28;20194;-43
2023/12/22 04:34:22;;;;;;;2.97;0.63;;;;;;;3.31;100.00;95757.78;6126560;28;20209;-44
2023/12/22 04:37:24;;;;;;;2.13;0.50;;;;;;;3.15;100.00;95753.31;6129013;28;20198;-44
2023/12/22 04:40:28;;;;;;;5.03;1.10;;;;;;;3.52;98.22;95765.94;6128562;28;20686;-44
2023/12/22 04:43:30;;;;;;;2.77;0.73;;;;;;;3.45;99.24;95781.09;6133947;28;20229;-45
2023/12/22 04:46:32;;;;;;;2.03;0.67;;;;;;;3.31;100.00;95793.81;6129160;29;20222;-44
2023/12/22 04:49:34;;;;;;;2.10;0.53;;;;;;;3.46;97.59;95774.81;6126048;28;20923;-44
2023/12/22 04:52:36;;;;;;;2.87;0.63;;;;;;;3.53;96.84;95770.16;6142041;28;20556;-44
2023/12/22 04:55:38;;;;;;;2.43;0.90;;;;;;;3.61;95.49;95770.53;6136819;28;20215;-44
2023/12/22 04:58:40;;;;;;;1.07;0.53;;;;;;;3.52;99.29;95777.25;6143577;28;20193;-44
2023/12/22 05:01:42;;;;;;;1.73;0.53;;;;;;;3.79;90.04;95752.81;6138594;28;20274;-45
2023/12/22 05:04:44;;;;;;;0.67;0.60;;;;;;;3.79;88.27;95753.63;6141938;28;20190;-43
2023/12/22 05:07:47;;;;;;;2.53;0.70;;;;;;;3.95;83.82;95794.09;6136323;28;20213;-46
2023/12/22 05:10:49;;;;;;;2.07;0.80;;;;;;;3.99;84.14;95791.75;6141524;28;20230;-44
2023/12/22 05:13:51;;;;;;;4.27;1.00;;;;;;;3.90;83.73;95764.28;6142069;28;20659;-45
2023/12/22 05:16:55;;;;;;;2.43;0.90;;;;;;;3.68;90.99;95732.69;6134209;28;20202;-44
2023/12/22 05:19:57;;;;;;;1.47;0.80;;;;;;;3.45;93.44;95739.78;6135593;28;20206;-44
2023/12/22 05:22:59;;;;;;;2.87;0.80;;;;;;;3.39;93.82;95763.63;6114980;28;20230;-44
2023/12/22 05:26:01;;;;;;;2.40;1.20;;;;;;;3.77;85.68;95760.16;6125366;28;20214;-44
2023/12/22 05:29:03;;;;;;;1.53;0.80;;;;;;;3.56;90.13;95777.56;6134717;28;20199;-43
2023/12/22 05:32:06;;;;;;;2.83;1.00;;;;;;;3.65;86.51;95759.50;6125433;28;20211;-44
2023/12/22 05:35:10;;;;;;;3.63;0.90;;;;;;;3.71;85.93;95764.59;6131149;29;20286;-45
2023/12/22 05:38:12;;;;;;;5.17;1.13;;;;;;;3.51;92.46;95754.59;6133051;28;20661;-44
2023/12/22 05:41:14;;;;;;;7.60;1.20;;;;;;;3.42;90.45;95755.28;6131298;28;20269;-45
2023/12/22 05:44:16;;;;;;;4.07;1.10;;;;;;;3.63;86.36;95757.91;6134915;28;20198;-45
2023/12/22 05:47:18;;;;;;;3.83;0.87;;;;;;;3.57;88.39;95747.56;6131866;28;20693;-45
2023/12/22 05:50:20;;;;;;;4.33;1.40;;;;;;;3.74;86.57;95742.22;6130033;28;20325;-48
2023/12/22 05:53:22;;;;;;;3.37;1.00;;;;;;;3.66;89.05;95767.16;6130327;29;20202;-46
2023/12/22 05:56:24;;;;;;;4.23;0.80;;;;;;;3.44;92.64;95763.72;6131442;29;20193;-46
2023/12/22 05:59:27;;;;;;;3.70;1.17;;;;;;;3.53;88.80;95785.94;6124559;29;20581;-44
2023/12/22 06:02:30;;;;;;;3.13;0.73;;;;;;;3.53;91.36;95784.09;6134727;28;20210;-46
2023/12/22 06:05:32;;;;;;;6.77;1.40;;;;;;;3.49;90.66;95776.94;6130695;29;20217;-45
2023/12/22 06:08:34;;;;;;;3.43;1.00;;;;;;;3.66;90.08;95790.84;6134455;28;20202;-46
2023/12/22 06:11:35;;;;;;;5.13;1.03;;;;;;;3.69;89.61;95795.63;6134722;28;20238;-45
2023/12/22 06:14:37;;;;;;;4.43;0.90;;;;;;;3.67;89.52;95791.66;6134891;28;20201;-45
2023/12/22 06:17:39;;;;;;;1.90;0.50;;;;;;;3.59;91.47;95804.19;6129902;28;20218;-43
2023/12/22 06:20:41;;;;;;;2.43;0.80;;;;;;;3.41;94.75;95801.84;6133400;28;20202;-45
2023/12/22 06:23:44;;;;;;;2.23;0.77;;;;;;;3.43;94.62;95809.50;6132372;29;20199;-44
2023/12/22 06:26:47;;;;;;;2.30;1.07;;;;;;;3.33;96.68;95818.84;6127450;28;20303;-45
2023/12/22 06:29:49;;;;;;;3.23;0.77;;;;;;;3.32;98.02;95812.00;6130432;28;20208;-45
2023/12/22 06:32:51;;;;;;;1.57;0.60;;;;;;;3.27;97.94;95801.38;6124821;28;20204;-46
2023/12/22 06:35:53;;;;;;;1.60;0.60;;;;;;;3.07;100.00;95832.66;6130709;28;20212;-45
2023/12/22 06:38:55;;;;;;;1.70;0.90;;;;;;;2.96;100.00;95834.34;6127364;28;20304;-44
2023/12/22 06:41:57;;;;;;;1.63;0.80;;;;;;;3.02;100.00;95848.38;6117234;28;20294;-45
2023/12/22 06:44:59;;;;;;;0.67;0.50;;;;;;;2.93;100.00;95815.59;6132161;28;20208;-46
2023/12/22 06:48:01;;;;;;;2.57;0.77;;;;;;;2.95;100.00;95826.66;6120831;29;20204;-47
2023/12/22 06:51:03;;;;;;;2.77;0.60;;;;;;;3.09;100.00;95825.31;6125881;28;20214;-45
2023/12/22 06:54:05;;;;;;;1.43;0.40;;;;;;;3.20;96.72;95795.50;6139883;28;20226;-45
2023/12/22 06:57:08;;;;;;;1.87;0.60;;;;;;;3.20;98.03;95821.81;6134692;28;20279;-44
2023/12/22 07:00:10;;;;;;;1.50;0.57;;;;;;;3.16;98.01;95852.28;6128306;29;20209;-45
2023/12/22 07:03:12;;;;;;;0.60;0.40;;;;;;;3.28;97.36;95839.03;6124185;28;20202;-44
2023/12/22 07:06:20;;;;;;;1.30;0.63;;;;;;;3.62;93.34;95821.34;6130279;28;20213;-45
2023/12/22 07:09:22;;;;;;;1.80;0.53;;;;;;;3.43;93.08;95833.19;6127936;28;20253;-44
2023/12/22 07:12:24;;;;;;;4.10;0.53;;;;;;;3.42;93.46;95815.81;6133014;28;20250;-44
2023/12/22 07:15:25;;;;;;;1.77;0.50;;;;;;;3.45;94.07;95858.25;6130291;28;20200;-44
2023/12/22 07:18:31;;;;;;;1.53;1.40;;;;;;;3.48;94.36;95856.94;6125950;28;20199;-44
2023/12/22 07:21:33;;;;;;;1.90;0.97;;;;;;;3.48;92.25;95836.69;6129517;28;20689;-44
2023/12/22 07:24:35;;;;;;;1.10;0.60;;;;;;;3.56;92.17;95822.31;6126929;28;20338;-45
2023/12/22 07:27:37;;;;;;;1.70;0.60;;;;;;;3.37;94.65;95832.31;6132340;28;20800;-44
2023/12/22 07:30:39;;;;;;;0.60;0.53;;;;;;;3.37;94.36;95845.47;6133281;28;20292;-45
2023/12/22 07:33:41;;;;;;;2.47;0.73;;;;;;;3.41;91.67;95840.53;6120887;28;20282;-44
2023/12/22 07:36:43;;;;;;;4.03;0.30;;;;;;;3.70;90.07;95842.00;6130469;29;20729;-44
2023/12/22 07:39:55;;;;;;;1.30;0.53;;;;;;;3.62;90.64;95859.00;6131142;29;20579;-44
2023/12/22 07:42:59;;;;;;;1.67;0.40;;;;;;;3.82;86.88;95850.56;6132601;28;20217;-43
2023/12/22 07:46:01;;;;;;;0.57;0.40;;;;;;;3.72;88.25;95857.53;6134367;28;20218;-44
2023/12/22 07:49:04;;;;;;;0.63;0.23;;;;;;;3.85;86.52;95860.63;6136925;28;20190;-43
2023/12/22 07:52:06;;;;;;;1.43;0.40;;;;;;;3.70;87.80;95860.44;6136699;28;20205;-43
2023/12/22 07:55:12;;;;;;;0.50;0.40;;;;;;;3.72;87.81;95865.44;6137597;28;20275;-44
2023/12/22 07:58:13;;;;;;;0.67;0.30;;;;;;;3.77;88.01;95860.25;6137141;28;20284;-45
2023/12/22 08:01:15;;;;;;;1.07;0.43;;;;;;;3.72;88.48;95850.44;6136110;28;20367;-42
2023/12/22 08:04:17;;;;;;;0.80;0.40;;;;;;;3.83;86.62;95839.00;6139522;28;20198;-44
2023/12/22 08:07:20;;;;;;;1.37;0.40;;;;;;;3.73;88.38;95852.03;6137540;28;20619;-44
2023/12/22 08:10:22;;;;;;;1.23;0.50;;;;;;;3.78;87.60;95862.63;6132558;28;20439;-43
2023/12/22 08:13:24;;;;;;;1.97;0.53;;;;;;;3.68;91.23;95880.91;6131396;29;20192;-45
2023/12/22 08:16:26;;;;;;;0.33;0.30;;;;;;;3.71;87.73;95884.91;6133363;28;20721;-42
2023/12/22 08:19:27;;;;;;;0.77;0.53;;;;;;;3.90;86.90;95869.63;6138317;28;20202;-46
2023/12/22 08:22:32;;;;;;;0.97;0.47;;;;;;;3.88;85.20;95872.50;6133206;28;20694;-43
2023/12/22 08:25:34;;;;;;;1.90;0.80;;;;;;;3.82;86.88;95890.06;6126899;28;20220;-43
2023/12/22 08:28:38;;;;;;;1.50;0.60;;;;;;;3.55;87.94;95845.22;6129915;29;20202;-43
2023/12/22 08:31:40;;;;;;;0.70;0.37;;;;;;;3.94;85.77;95873.34;6128001;28;20220;-43
2023/12/22 08:34:42;;;;;;;1.40;0.40;;;;;;;3.62;88.04;95845.84;6130625;28;20287;-44
2023/12/22 08:37:44;;;;;;;0.30;0.30;;;;;;;4.01;84.95;95889.81;6131290;28;20195;-44
2023/12/22 08:40:45;;;;;;;1.90;0.43;;;;;;;3.96;85.25;95887.09;6129404;28;20201;-43
2023/12/22 08:43:47;;;;;;;0.73;0.47;;;;;;;3.92;84.40;95884.16;6111615;29;20872;-43
2023/12/22 08:46:50;;;;;;;2.10;0.57;;;;;;;4.03;84.55;95943.81;6128051;29;20203;-44
2023/12/22 08:49:51;;;;;;;1.10;0.37;;;;;;;4.08;82.78;95885.94;6117954;28;20225;-44
2023/12/22 08:52:53;;;;;;;1.23;0.40;;;;;;;4.16;83.25;95884.72;6131479;29;20198;-45
2023/12/22 08:55:56;;;;;;;1.13;0.30;;;;;;;4.02;87.53;95879.00;6134898;28;20202;-44
2023/12/22 08:59:01;;;;;;;2.23;0.80;;;;;;;4.03;85.15;95869.25;6125998;28;20214;-43
2023/12/22 09:02:03;;;;;;;1.20;0.30;;;;;;;4.10;84.86;95875.97;6128791;28;20203;-44
2023/12/22 09:05:06;;;;;;;1.73;0.43;;;;;;;4.03;84.78;95866.63;6130158;28;20660;-45
2023/12/22 09:08:09;;;;;;;1.80;0.50;;;;;;;3.97;85.07;95873.69;6132455;28;20225;-44
2023/12/22 09:11:14;;;;;;;3.17;0.60;;;;;;;4.10;83.41;95869.91;6089705;28;1143922;-47
2023/12/22 09:14:16;;;;;;;2.00;0.50;;;;;;;4.16;86.62;95855.72;6126741;28;20188;-47
2023/12/22 09:17:18;;;;;;;0.77;0.47;;;;;;;4.43;80.34;95863.66;6117442;28;20202;-47
2023/12/22 09:20:20;;;;;;;0.90;0.40;;;;;;;4.25;82.88;95864.81;6135960;28;20643;-46
2023/12/22 09:23:22;;;;;;;2.27;0.43;;;;;;;4.19;85.47;95870.25;6134667;28;20501;-44
2023/12/22 09:26:24;;;;;;;1.17;0.47;;;;;;;4.31;81.44;95857.75;6138015;28;20221;-44
2023/12/22 09:29:35;;;;;;;3.47;0.67;;;;;;;4.24;84.96;95859.78;6134514;28;20225;-44
2023/12/22 09:32:37;;;;;;;2.73;0.40;;;;;;;4.20;86.64;95867.38;6133918;28;20212;-46
2023/12/22 09:35:41;;;;;;;1.17;0.50;;;;;;;4.28;82.14;95888.00;6134888;28;20210;-45
2023/12/22 09:38:44;;;;;;;1.67;0.80;;;;;;;4.37;82.55;95907.63;6126623;28;20201;-45
2023/12/22 09:41:48;;;;;;;2.00;0.50;;;;;;;4.50;83.11;95887.22;6133023;29;20200;-44
2023/12/22 09:44:54;;;;;;;1.20;0.30;;;;;;;4.32;83.44;95894.41;6116057;28;20324;-45
2023/12/22 09:47:59;;;;;;;1.20;0.43;;;;;;;4.43;81.25;95876.84;6137304;28;20216;-45
2023/12/22 09:51:02;;;;;;;1.80;0.50;;;;;;;4.63;78.08;95895.56;6135134;28;20345;-44
2023/12/22 09:54:05;;;;;;;2.23;0.60;;;;;;;4.59;78.79;95878.63;6131378;28;20191;-43
2023/12/22 09:57:08;;;;;;;2.73;0.70;;;;;;;4.59;79.24;95875.19;6134278;28;20193;-44
2023/12/22 10:00:23;;;;;;;1.87;0.57;;;;;;;4.34;81.62;95865.97;6130588;28;20220;-44
2023/12/22 10:03:26;;;;;;;1.27;0.90;;;;;;;4.37;81.16;95883.13;6133176;28;20393;-44
2023/12/22 10:06:28;;;;;;;0.83;0.43;;;;;;;4.49;79.13;95875.09;6136924;28;20218;-44
2023/12/22 10:09:31;;;;;;;1.97;0.40;;;;;;;4.29;78.73;95860.63;6131833;28;20194;-44
2023/12/22 10:12:34;;;;;;;1.80;0.40;;;;;;;4.31;79.81;95870.94;6127369;28;20247;-45
2023/12/22 10:15:42;;;;;;;1.03;0.40;;;;;;;4.37;79.03;95897.09;6135192;29;20202;-44
2023/12/22 10:18:44;;;;;;;1.27;0.40;;;;;;;4.55;79.67;95868.81;6128981;29;20223;-44
2023/12/22 10:21:48;;;;;;;1.77;0.33;;;;;;;4.50;79.35;95874.03;6137639;28;20199;-44
2023/12/22 10:24:50;;;;;;;1.93;0.70;;;;;;;4.51;82.24;95865.06;6125027;28;20214;-45
2023/12/22 10:27:53;;;;;;;0.87;0.37;;;;;;;4.53;80.03;95884.06;6130101;28;20245;-44
2023/12/22 10:30:59;;;;;;;2.13;0.40;;;;;;;4.47;80.94;95883.22;6129477;28;20723;-45
2023/12/22 10:34:01;;;;;;;1.17;0.50;;;;;;;4.48;82.64;95894.56;6131770;28;20203;-47
2023/12/22 10:37:04;;;;;;;1.23;0.70;;;;;;;4.75;79.14;95884.84;6129503;28;20186;-44
2023/12/22 10:40:08;;;;;;;0.80;0.40;;;;;;;4.79;78.14;95887.78;6129282;28;20281;-44
2023/12/22 10:43:10;;;;;;;1.53;0.50;;;;;;;4.99;77.29;95885.34;6127209;29;20314;-44
2023/12/22 10:46:13;;;;;;;0.47;0.40;;;;;;;4.78;79.90;95886.19;6128084;28;20212;-45
2023/12/22 10:49:15;;;;;;;2.37;0.43;;;;;;;4.77;79.28;95890.66;6127482;28;20203;-45
2023/12/22 10:52:18;;;;;;;2.20;0.63;;;;;;;4.69;80.25;95930.69;6127220;28;20200;-45
2023/12/22 10:55:21;;;;;;;2.50;0.50;;;;;;;4.69;80.56;95917.50;6133198;28;20202;-46
2023/12/22 10:58:23;;;;;;;1.00;0.40;;;;;;;4.64;82.45;95893.72;6134062;28;20572;-44
2023/12/22 11:01:33;;;;;;;1.10;0.40;;;;;;;4.75;80.18;95907.78;6121605;29;20279;-44
2023/12/22 11:04:37;;;;;;;0.90;0.50;;;;;;;4.71;82.18;95896.94;6134762;28;20281;-44
2023/12/22 11:07:41;;;;;;;1.70;0.27;;;;;;;4.87;80.25;95906.59;6135788;28;20222;-45
2023/12/22 11:10:47;;;;;;;1.00;0.60;;;;;;;4.69;82.31;95879.78;6128187;28;20238;-44
2023/12/22 11:13:51;;;;;;;1.70;0.60;;;;;;;5.09;78.17;95888.06;6136062;28;20780;-44
2023/12/22 11:16:54;;;;;;;2.70;0.50;;;;;;;5.09;77.02;95934.78;6135170;28;20192;-44
2023/12/22 11:19:57;;;;;;;0.53;0.40;;;;;;;5.13;77.01;95897.09;6135110;28;20209;-43
2023/12/22 11:23:00;;;;;;;0.57;0.30;;;;;;;4.86;81.09;95891.81;6133799;28;20198;-44
2023/12/22 11:26:04;;;;;;;0.50;0.40;;;;;;;4.51;82.72;95928.34;6127216;28;20204;-47
2023/12/22 11:29:07;;;;;;;1.30;0.40;;;;;;;4.07;87.64;95908.06;6140592;28;20207;-45
2023/12/22 11:32:11;;;;;;;0.70;0.23;;;;;;;3.25;93.86;95913.16;6138116;28;20671;-45
2023/12/22 11:35:14;;;;;;;1.13;0.30;;;;;;;2.89;98.19;95898.63;6136253;28;20204;-46
2023/12/22 11:38:16;;;;;;;0.17;0.17;;;;;;;2.26;100.00;95939.78;6138324;29;20191;-46
2023/12/22 11:41:27;;;;;;;0.27;0.27;;;;;;;1.90;100.00;95914.59;6138423;28;20606;-47
2023/12/22 11:44:29;;;;;;;0.20;0.10;;;;;;;1.68;100.00;95914.41;6113545;29;20863;-42
2023/12/22 11:47:32;;;;;;;0.20;0.20;;;;;;;1.69;100.00;95922.03;6141051;28;20341;-42
2023/12/22 11:50:35;;;;;;;0.60;0.27;;;;;;;2.10;100.00;95916.84;6113879;29;20209;-41
2023/12/22 11:53:37;;;;;;;0.33;0.23;;;;;;;2.00;100.00;95891.19;6128406;28;20191;-41
2023/12/22 11:56:39;;;;;;;0.20;0.20;;;;;;;1.90;100.00;95888.34;6128986;28;20199;-40
2023/12/22 11:59:41;;;;;;;1.03;0.30;;;;;;;1.83;100.00;95874.56;6125826;28;20206;-41
2023/12/22 12:02:54;;;;;;;2.80;0.57;;;;;;;1.90;100.00;95885.72;6111905;28;20201;-41
2023/12/22 12:06:26;;;;;;;0.70;0.50;;;;;;;2.20;100.00;95872.41;6127884;29;20232;-41
2023/12/22 12:09:45;;;;;;;0.50;0.50;;;;;;;2.42;100.00;95867.31;6131548;29;20223;-41
2023/12/22 12:12:47;;;;;;;0.63;0.50;;;;;;;2.54;100.00;95857.53;6126065;28;20238;-43
2023/12/22 12:15:52;;;;;;;0.90;0.63;;;;;;;2.53;100.00;95867.25;6113704;29;20206;-43
2023/12/22 12:18:54;;;;;;;1.20;0.60;;;;;;;2.84;100.00;95863.31;6126864;29;20188;-42
2023/12/22 12:21:56;;;;;;;0.97;0.50;;;;;;;3.06;100.00;95836.34;6129487;28;20947;-43
2023/12/22 12:24:58;;;;;;;1.90;0.60;;;;;;;2.80;100.00;95820.13;6128342;28;20210;-42
2023/12/22 12:28:02;;;;;;;0.60;0.50;;;;;;;2.74;100.00;95833.44;6126515;28;20313;-43
2023/12/22 12:31:08;;;;;;;0.87;0.53;;;;;;;2.63;100.00;95844.81;6129820;28;20786;-43
2023/12/22 12:34:11;;;;;;;0.70;0.40;;;;;;;2.68;100.00;95829.13;6131902;28;20202;-44
2023/12/22 12:37:13;;;;;;;2.20;0.90;;;;;;;3.20;100.00;95831.53;6131859;28;20664;-43
2023/12/22 12:40:20;;;;;;;0.83;0.40;;;;;;;3.35;96.34;95832.56;6136379;28;20670;-43
2023/12/22 12:43:23;;;;;;;1.90;0.30;;;;;;;3.29;100.00;95822.97;6133460;28;20308;-42
2023/12/22 12:46:33;;;;;;;2.77;0.57;;;;;;;3.51;94.81;95817.00;6130928;28;20678;-43
2023/12/22 12:49:35;;;;;;;1.00;0.60;;;;;;;3.46;97.13;95822.97;6131569;28;20458;-42
2023/12/22 12:52:37;;;;;;;0.77;0.23;;;;;;;3.46;100.00;95817.72;6131723;28;20199;-43
2023/12/22 12:55:39;;;;;;;1.53;0.70;;;;;;;3.53;100.00;95815.69;6132711;28;20212;-43
2023/12/22 12:58:42;;;;;;;0.67;0.67;;;;;;;3.40;100.00;95820.50;6134470;28;20192;-43
2023/12/22 13:01:46;;;;;;;1.17;0.43;;;;;;;3.38;100.00;95830.47;6132255;28;20676;-43
2023/12/22 13:04:49;;;;;;;0.43;0.23;;;;;;;3.35;100.00;95839.66;6132159;28;20199;-43
2023/12/22 13:07:51;;;;;;;0.77;0.50;;;;;;;3.55;99.93;95842.59;6120237;29;20702;-43
2023/12/22 13:11:01;;;;;;;0.57;0.30;;;;;;;3.61;98.87;95838.19;6127704;28;20235;-45
2023/12/22 13:14:05;;;;;;;2.73;0.47;;;;;;;3.66;94.96;95826.94;6131585;28;20526;-43
2023/12/22 13:17:09;;;;;;;2.57;0.40;;;;;;;3.56;100.00;95833.66;6128997;28;20191;-44
2023/12/22 13:20:12;;;;;;;1.33;0.40;;;;;;;3.82;93.44;95829.50;6132684;28;20670;-43
2023/12/22 13:23:18;;;;;;;0.70;0.43;;;;;;;3.63;100.00;95821.09;6141180;28;20322;-43
2023/12/22 13:26:20;;;;;;;1.53;0.63;;;;;;;3.51;100.00;95845.94;6138201;28;20199;-43
2023/12/22 13:29:22;;;;;;;1.63;0.63;;;;;;;3.43;100.00;95839.25;6144675;28;20456;-43
2023/12/22 13:32:24;;;;;;;1.30;0.50;;;;;;;3.39;100.00;95832.06;6141327;28;20218;-43
2023/12/22 13:35:28;;;;;;;1.30;0.60;;;;;;;3.45;100.00;95823.19;6138045;29;20201;-42
2023/12/22 13:38:30;;;;;;;1.90;0.60;;;;;;;3.56;97.71;95825.75;6135860;28;20656;-43
2023/12/22 13:41:41;;;;;;;1.93;0.60;;;;;;;3.65;96.00;95826.13;6132050;29;20203;-43
2023/12/22 13:44:49;;;;;;;1.40;0.40;;;;;;;3.78;92.87;95846.03;6130001;29;20201;-43
2023/12/22 13:47:51;;;;;;;0.57;0.57;;;;;;;3.89;90.21;95839.84;6133097;28;20561;-44
2023/12/22 13:51:01;;;;;;;0.83;0.40;;;;;;;4.12;79.96;95865.16;6130358;28;20192;-44
2023/12/22 13:54:04;;;;;;;0.83;0.30;;;;;;;4.96;65.41;95843.63;6131253;28;20200;-43
2023/12/22 13:57:06;;;;;;;1.53;0.40;;;;;;;5.14;59.91;95866.19;6128705;28;20207;-42
2023/12/22 14:00:21;;;;;;;2.13;0.40;;;;;;;5.14;60.72;95884.69;6132919;28;20199;-43
2023/12/22 14:03:24;;;;;;;1.27;0.37;;;;;;;5.12;57.65;95863.00;6133049;28;20674;-44
2023/12/22 14:06:27;;;;;;;0.93;0.40;;;;;;;4.84;61.03;95870.16;6133590;28;20668;-43
2023/12/22 14:09:32;;;;;;;1.20;0.40;;;;;;;4.89;58.80;95916.91;6134639;28;20306;-45
2023/12/22 14:12:37;;;;;;;0.33;0.20;;;;;;;4.84;57.74;95890.47;6131311;28;20401;-47
2023/12/22 14:15:42;;;;;;;3.27;0.40;;;;;;;4.76;59.67;95888.28;6131595;28;20195;-45
2023/12/22 14:18:48;;;;;;;0.60;0.30;;;;;;;4.45;64.01;95905.63;6132429;28;20203;-44
2023/12/22 14:21:50;;;;;;;1.43;0.40;;;;;;;4.37;65.65;95922.66;6134202;28;20199;-43
2023/12/22 14:24:53;;;;;;;1.83;0.70;;;;;;;4.13;70.71;95890.47;6125397;29;20578;-43
2023/12/22 14:27:57;;;;;;;0.43;0.40;;;;;;;3.96;73.35;95910.81;6131150;28;20230;-44
2023/12/22 14:30:59;;;;;;;1.17;0.40;;;;;;;3.78;76.51;95910.03;6125471;28;20210;-45